sensor_id;sensor_type;location;lat;lon;timestamp;P1;durP1;ratioP1;P2;durP2;ratioP2
76788;SDS011;65740;52.464;13.446;2023-10-19T00:00:56;17.87;;;16.77;;
76788;SDS011;65740;52.464;13.446;2023-10-19T00:03:24;17.77;;;16.50;;
76788;SDS011;65740;52.464;13.446;2023-10-19T00:05:50;17.67;;;16.67;;
76788;SDS011;65740;52.464;13.446;2023-10-19T00:08:16;17.10;;;16.10;;
76788;SDS011;65740;52.464;13.446;2023-10-19T00:10:42;17.00;;;16.00;;
76788;SDS011;65740;52.464;13.446;2023-10-19T00:13:10;17.20;;;16.20;;
76788;SDS011;65740;52.464;13.446;2023-10-19T00:15:39;17.93;;;16.83;;
76788;SDS011;65740;52.464;13.446;2023-10-19T00:18:12;17.80;;;16.80;;
76788;SDS011;65740;52.464;13.446;2023-10-19T00:20:41;17.27;;;16.20;;
76788;SDS011;65740;52.464;13.446;2023-10-19T00:23:16;17.70;;;16.70;;
76788;SDS011;65740;52.464;13.446;2023-10-19T00:26:03;19.07;;;17.77;;
76788;SDS011;65740;52.464;13.446;2023-10-19T00:28:33;18.47;;;17.27;;
76788;SDS011;65740;52.464;13.446;2023-10-19T00:31:01;17.70;;;16.60;;
76788;SDS011;65740;52.464;13.446;2023-10-19T00:33:33;17.70;;;16.70;;
76788;SDS011;65740;52.464;13.446;2023-10-19T00:36:09;17.83;;;16.73;;
76788;SDS011;65740;52.464;13.446;2023-10-19T00:38:38;17.87;;;16.87;;
76788;SDS011;65740;52.464;13.446;2023-10-19T00:41:06;18.23;;;17.23;;
76788;SDS011;65740;52.464;13.446;2023-10-19T00:43:36;17.53;;;16.53;;
76788;SDS011;65740;52.464;13.446;2023-10-19T00:46:08;16.67;;;15.77;;
76788;SDS011;65740;52.464;13.446;2023-10-19T00:51:45;17.23;;;16.23;;
76788;SDS011;65740;52.464;13.446;2023-10-19T00:54:17;18.20;;;17.10;;
76788;SDS011;65740;52.464;13.446;2023-10-19T00:57:00;17.57;;;16.43;;
76788;SDS011;65740;52.464;13.446;2023-10-19T00:59:37;16.90;;;16.00;;
76788;SDS011;65740;52.464;13.446;2023-10-19T01:02:08;17.07;;;16.07;;
76788;SDS011;65740;52.464;13.446;2023-10-19T01:04:45;17.97;;;16.87;;
76788;SDS011;65740;52.464;13.446;2023-10-19T01:07:15;18.10;;;17.00;;
76788;SDS011;65740;52.464;13.446;2023-10-19T01:09:51;18.23;;;17.07;;
76788;SDS011;65740;52.464;13.446;2023-10-19T01:12:19;17.57;;;16.57;;
76788;SDS011;65740;52.464;13.446;2023-10-19T01:17:51;16.80;;;15.80;;
76788;SDS011;65740;52.464;13.446;2023-10-19T01:20:22;17.37;;;16.37;;
76788;SDS011;65740;52.464;13.446;2023-10-19T01:22:58;17.90;;;16.80;;
76788;SDS011;65740;52.464;13.446;2023-10-19T01:28:30;16.70;;;15.80;;
76788;SDS011;65740;52.464;13.446;2023-10-19T01:31:07;16.67;;;15.83;;
76788;SDS011;65740;52.464;13.446;2023-10-19T01:33:33;17.80;;;16.70;;
76788;SDS011;65740;52.464;13.446;2023-10-19T01:36:00;17.50;;;16.40;;
76788;SDS011;65740;52.464;13.446;2023-10-19T01:38:44;17.40;;;16.30;;
76788;SDS011;65740;52.464;13.446;2023-10-19T01:41:12;17.40;;;16.30;;
76788;SDS011;65740;52.464;13.446;2023-10-19T01:43:42;17.30;;;16.30;;
76788;SDS011;65740;52.464;13.446;2023-10-19T01:46:09;17.30;;;16.30;;
76788;SDS011;65740;52.464;13.446;2023-10-19T01:48:47;16.43;;;15.53;;
76788;SDS011;65740;52.464;13.446;2023-10-19T01:51:14;16.87;;;15.93;;
76788;SDS011;65740;52.464;13.446;2023-10-19T01:53:41;17.13;;;16.13;;
76788;SDS011;65740;52.464;13.446;2023-10-19T01:56:12;17.43;;;16.33;;
76788;SDS011;65740;52.464;13.446;2023-10-19T01:58:40;17.33;;;16.27;;
76788;SDS011;65740;52.464;13.446;2023-10-19T02:01:06;17.57;;;16.47;;
76788;SDS011;65740;52.464;13.446;2023-10-19T02:03:41;16.33;;;15.43;;
76788;SDS011;65740;52.464;13.446;2023-10-19T02:06:08;17.60;;;16.60;;
76788;SDS011;65740;52.464;13.446;2023-10-19T02:08:51;17.30;;;16.30;;
76788;SDS011;65740;52.464;13.446;2023-10-19T02:11:26;16.90;;;15.90;;
76788;SDS011;65740;52.464;13.446;2023-10-19T02:13:56;16.83;;;15.83;;
76788;SDS011;65740;52.464;13.446;2023-10-19T02:16:29;17.27;;;16.37;;
76788;SDS011;65740;52.464;13.446;2023-10-19T02:18:54;17.33;;;16.33;;
76788;SDS011;65740;52.464;13.446;2023-10-19T02:21:20;17.60;;;16.50;;
76788;SDS011;65740;52.464;13.446;2023-10-19T02:23:56;17.00;;;16.10;;
76788;SDS011;65740;52.464;13.446;2023-10-19T02:26:22;17.10;;;16.10;;
76788;SDS011;65740;52.464;13.446;2023-10-19T02:28:51;17.33;;;16.33;;
76788;SDS011;65740;52.464;13.446;2023-10-19T02:31:17;16.60;;;15.70;;
76788;SDS011;65740;52.464;13.446;2023-10-19T02:33:46;18.10;;;17.00;;
76788;SDS011;65740;52.464;13.446;2023-10-19T02:36:25;18.10;;;16.90;;
76788;SDS011;65740;52.464;13.446;2023-10-19T02:38:55;17.93;;;16.83;;
76788;SDS011;65740;52.464;13.446;2023-10-19T02:41:24;17.70;;;16.60;;
76788;SDS011;65740;52.464;13.446;2023-10-19T02:43:52;17.97;;;16.83;;
76788;SDS011;65740;52.464;13.446;2023-10-19T02:46:32;17.60;;;16.60;;
76788;SDS011;65740;52.464;13.446;2023-10-19T02:49:01;16.47;;;15.57;;
76788;SDS011;65740;52.464;13.446;2023-10-19T02:51:35;17.27;;;16.17;;
76788;SDS011;65740;52.464;13.446;2023-10-19T02:54:01;17.83;;;16.77;;
76788;SDS011;65740;52.464;13.446;2023-10-19T02:56:27;17.47;;;16.40;;
76788;SDS011;65740;52.464;13.446;2023-10-19T02:58:55;16.80;;;15.80;;
76788;SDS011;65740;52.464;13.446;2023-10-19T03:01:26;17.70;;;16.70;;
76788;SDS011;65740;52.464;13.446;2023-10-19T03:03:56;16.37;;;15.57;;
76788;SDS011;65740;52.464;13.446;2023-10-19T03:06:25;17.80;;;16.60;;
76788;SDS011;65740;52.464;13.446;2023-10-19T03:08:56;17.80;;;16.80;;
76788;SDS011;65740;52.464;13.446;2023-10-19T03:11:41;17.30;;;16.30;;
76788;SDS011;65740;52.464;13.446;2023-10-19T03:14:07;16.97;;;15.90;;
76788;SDS011;65740;52.464;13.446;2023-10-19T03:16:35;17.47;;;16.47;;
76788;SDS011;65740;52.464;13.446;2023-10-19T03:19:01;17.50;;;16.50;;
76788;SDS011;65740;52.464;13.446;2023-10-19T03:21:28;17.57;;;16.57;;
76788;SDS011;65740;52.464;13.446;2023-10-19T03:23:59;17.37;;;16.33;;
76788;SDS011;65740;52.464;13.446;2023-10-19T03:26:30;17.97;;;16.87;;
76788;SDS011;65740;52.464;13.446;2023-10-19T03:28:58;17.30;;;16.30;;
76788;SDS011;65740;52.464;13.446;2023-10-19T03:31:32;16.87;;;15.97;;
76788;SDS011;65740;52.464;13.446;2023-10-19T03:33:58;17.37;;;16.37;;
76788;SDS011;65740;52.464;13.446;2023-10-19T03:36:24;16.13;;;15.23;;
76788;SDS011;65740;52.464;13.446;2023-10-19T03:38:51;18.20;;;17.10;;
76788;SDS011;65740;52.464;13.446;2023-10-19T03:41:18;17.37;;;16.17;;
76788;SDS011;65740;52.464;13.446;2023-10-19T03:43:47;17.20;;;16.17;;
76788;SDS011;65740;52.464;13.446;2023-10-19T03:46:16;17.10;;;16.17;;
76788;SDS011;65740;52.464;13.446;2023-10-19T03:48:54;17.50;;;16.40;;
76788;SDS011;65740;52.464;13.446;2023-10-19T03:51:25;17.90;;;16.87;;
76788;SDS011;65740;52.464;13.446;2023-10-19T03:53:52;18.10;;;17.00;;
76788;SDS011;65740;52.464;13.446;2023-10-19T03:56:26;17.80;;;16.70;;
76788;SDS011;65740;52.464;13.446;2023-10-19T03:58:51;17.93;;;16.83;;
76788;SDS011;65740;52.464;13.446;2023-10-19T04:01:17;17.97;;;16.97;;
76788;SDS011;65740;52.464;13.446;2023-10-19T04:03:44;17.63;;;16.63;;
76788;SDS011;65740;52.464;13.446;2023-10-19T04:06:10;18.30;;;17.20;;
76788;SDS011;65740;52.464;13.446;2023-10-19T04:08:39;17.37;;;16.47;;
76788;SDS011;65740;52.464;13.446;2023-10-19T04:11:07;18.00;;;16.97;;
76788;SDS011;65740;52.464;13.446;2023-10-19T04:13:34;17.60;;;16.60;;
76788;SDS011;65740;52.464;13.446;2023-10-19T04:16:03;17.93;;;16.97;;
76788;SDS011;65740;52.464;13.446;2023-10-19T04:18:30;18.57;;;17.50;;
76788;SDS011;65740;52.464;13.446;2023-10-19T04:20:56;17.83;;;16.83;;
76788;SDS011;65740;52.464;13.446;2023-10-19T04:23:23;17.57;;;16.57;;
76788;SDS011;65740;52.464;13.446;2023-10-19T04:25:53;17.90;;;16.83;;
76788;SDS011;65740;52.464;13.446;2023-10-19T04:28:21;17.83;;;16.83;;
76788;SDS011;65740;52.464;13.446;2023-10-19T04:30:55;17.43;;;16.43;;
76788;SDS011;65740;52.464;13.446;2023-10-19T04:33:25;17.80;;;16.80;;
76788;SDS011;65740;52.464;13.446;2023-10-19T04:35:53;17.30;;;16.30;;
76788;SDS011;65740;52.464;13.446;2023-10-19T04:38:20;17.40;;;16.40;;
76788;SDS011;65740;52.464;13.446;2023-10-19T04:40:49;17.87;;;16.87;;
76788;SDS011;65740;52.464;13.446;2023-10-19T04:43:15;17.50;;;16.60;;
76788;SDS011;65740;52.464;13.446;2023-10-19T04:45:41;17.37;;;16.37;;
76788;SDS011;65740;52.464;13.446;2023-10-19T04:48:09;17.50;;;16.40;;
76788;SDS011;65740;52.464;13.446;2023-10-19T04:50:35;17.63;;;16.57;;
76788;SDS011;65740;52.464;13.446;2023-10-19T04:53:00;17.97;;;16.97;;
76788;SDS011;65740;52.464;13.446;2023-10-19T04:55:27;17.60;;;16.60;;
76788;SDS011;65740;52.464;13.446;2023-10-19T04:57:55;18.00;;;16.90;;
76788;SDS011;65740;52.464;13.446;2023-10-19T05:00:22;17.67;;;16.67;;
76788;SDS011;65740;52.464;13.446;2023-10-19T05:02:49;18.23;;;17.13;;
76788;SDS011;65740;52.464;13.446;2023-10-19T05:05:17;17.80;;;16.70;;
76788;SDS011;65740;52.464;13.446;2023-10-19T05:07:43;17.73;;;16.70;;
76788;SDS011;65740;52.464;13.446;2023-10-19T05:10:09;18.23;;;17.13;;
76788;SDS011;65740;52.464;13.446;2023-10-19T05:12:36;18.13;;;17.03;;
76788;SDS011;65740;52.464;13.446;2023-10-19T05:15:01;18.37;;;17.27;;
76788;SDS011;65740;52.464;13.446;2023-10-19T05:17:27;18.50;;;17.30;;
76788;SDS011;65740;52.464;13.446;2023-10-19T05:19:53;17.50;;;16.50;;
76788;SDS011;65740;52.464;13.446;2023-10-19T05:22:18;18.30;;;17.00;;
76788;SDS011;65740;52.464;13.446;2023-10-19T05:24:44;17.83;;;16.70;;
76788;SDS011;65740;52.464;13.446;2023-10-19T05:27:10;17.50;;;16.50;;
76788;SDS011;65740;52.464;13.446;2023-10-19T05:29:37;17.27;;;16.27;;
76788;SDS011;65740;52.464;13.446;2023-10-19T05:32:04;19.07;;;18.07;;
76788;SDS011;65740;52.464;13.446;2023-10-19T05:34:30;18.00;;;16.93;;
76788;SDS011;65740;52.464;13.446;2023-10-19T05:36:59;17.60;;;16.60;;
76788;SDS011;65740;52.464;13.446;2023-10-19T05:39:27;18.57;;;17.37;;
76788;SDS011;65740;52.464;13.446;2023-10-19T05:41:53;18.93;;;17.77;;
76788;SDS011;65740;52.464;13.446;2023-10-19T05:44:20;18.07;;;17.03;;
76788;SDS011;65740;52.464;13.446;2023-10-19T05:46:45;18.40;;;17.30;;
76788;SDS011;65740;52.464;13.446;2023-10-19T05:49:12;17.77;;;16.77;;
76788;SDS011;65740;52.464;13.446;2023-10-19T05:51:38;17.73;;;16.83;;
76788;SDS011;65740;52.464;13.446;2023-10-19T05:54:04;18.10;;;17.07;;
76788;SDS011;65740;52.464;13.446;2023-10-19T05:56:30;18.47;;;17.37;;
76788;SDS011;65740;52.464;13.446;2023-10-19T05:58:56;17.50;;;16.50;;
76788;SDS011;65740;52.464;13.446;2023-10-19T06:01:22;17.97;;;17.00;;
76788;SDS011;65740;52.464;13.446;2023-10-19T06:03:49;17.53;;;16.53;;
76788;SDS011;65740;52.464;13.446;2023-10-19T06:06:15;18.50;;;17.40;;
76788;SDS011;65740;52.464;13.446;2023-10-19T06:08:41;18.77;;;17.70;;
76788;SDS011;65740;52.464;13.446;2023-10-19T06:11:07;18.73;;;17.73;;
76788;SDS011;65740;52.464;13.446;2023-10-19T06:13:32;18.00;;;17.00;;
76788;SDS011;65740;52.464;13.446;2023-10-19T06:15:58;18.10;;;17.10;;
76788;SDS011;65740;52.464;13.446;2023-10-19T06:18:23;17.73;;;16.73;;
76788;SDS011;65740;52.464;13.446;2023-10-19T06:20:49;18.37;;;17.27;;
76788;SDS011;65740;52.464;13.446;2023-10-19T06:23:16;18.10;;;17.10;;
76788;SDS011;65740;52.464;13.446;2023-10-19T06:25:43;18.23;;;17.13;;
76788;SDS011;65740;52.464;13.446;2023-10-19T06:28:09;17.63;;;16.63;;
76788;SDS011;65740;52.464;13.446;2023-10-19T06:30:36;18.03;;;16.93;;
76788;SDS011;65740;52.464;13.446;2023-10-19T06:33:02;17.80;;;16.80;;
76788;SDS011;65740;52.464;13.446;2023-10-19T06:35:29;17.60;;;16.60;;
76788;SDS011;65740;52.464;13.446;2023-10-19T06:38:02;18.90;;;17.70;;
76788;SDS011;65740;52.464;13.446;2023-10-19T06:40:33;17.67;;;16.67;;
76788;SDS011;65740;52.464;13.446;2023-10-19T06:43:01;17.67;;;16.67;;
76788;SDS011;65740;52.464;13.446;2023-10-19T06:45:28;18.43;;;17.27;;
76788;SDS011;65740;52.464;13.446;2023-10-19T06:47:55;18.33;;;17.23;;
76788;SDS011;65740;52.464;13.446;2023-10-19T06:50:22;17.93;;;16.93;;
76788;SDS011;65740;52.464;13.446;2023-10-19T06:52:48;17.80;;;16.80;;
76788;SDS011;65740;52.464;13.446;2023-10-19T06:55:15;18.27;;;17.10;;
76788;SDS011;65740;52.464;13.446;2023-10-19T06:57:45;18.17;;;17.17;;
76788;SDS011;65740;52.464;13.446;2023-10-19T07:00:15;18.57;;;17.47;;
76788;SDS011;65740;52.464;13.446;2023-10-19T07:02:45;17.73;;;16.73;;
76788;SDS011;65740;52.464;13.446;2023-10-19T07:05:12;18.47;;;17.37;;
76788;SDS011;65740;52.464;13.446;2023-10-19T07:07:40;18.33;;;17.23;;
76788;SDS011;65740;52.464;13.446;2023-10-19T07:10:07;18.77;;;17.73;;
76788;SDS011;65740;52.464;13.446;2023-10-19T07:12:34;18.77;;;17.57;;
76788;SDS011;65740;52.464;13.446;2023-10-19T07:15:00;18.93;;;17.83;;
76788;SDS011;65740;52.464;13.446;2023-10-19T07:17:26;18.57;;;17.47;;
76788;SDS011;65740;52.464;13.446;2023-10-19T07:19:52;18.37;;;17.33;;
76788;SDS011;65740;52.464;13.446;2023-10-19T07:22:18;17.80;;;16.80;;
76788;SDS011;65740;52.464;13.446;2023-10-19T07:24:47;18.90;;;17.80;;
76788;SDS011;65740;52.464;13.446;2023-10-19T07:27:13;18.30;;;17.20;;
76788;SDS011;65740;52.464;13.446;2023-10-19T07:29:43;18.40;;;17.30;;
76788;SDS011;65740;52.464;13.446;2023-10-19T07:32:09;18.77;;;17.77;;
76788;SDS011;65740;52.464;13.446;2023-10-19T07:34:38;17.57;;;16.57;;
76788;SDS011;65740;52.464;13.446;2023-10-19T07:37:04;17.87;;;16.87;;
76788;SDS011;65740;52.464;13.446;2023-10-19T07:39:32;19.10;;;17.90;;
76788;SDS011;65740;52.464;13.446;2023-10-19T07:41:59;18.90;;;17.80;;
76788;SDS011;65740;52.464;13.446;2023-10-19T07:44:24;18.87;;;17.60;;
76788;SDS011;65740;52.464;13.446;2023-10-19T07:46:50;18.33;;;17.33;;
76788;SDS011;65740;52.464;13.446;2023-10-19T07:49:17;18.70;;;17.40;;
76788;SDS011;65740;52.464;13.446;2023-10-19T07:51:49;18.73;;;17.53;;
76788;SDS011;65740;52.464;13.446;2023-10-19T07:54:16;18.80;;;17.50;;
76788;SDS011;65740;52.464;13.446;2023-10-19T07:56:41;18.60;;;17.47;;
76788;SDS011;65740;52.464;13.446;2023-10-19T07:59:08;18.80;;;17.70;;
76788;SDS011;65740;52.464;13.446;2023-10-19T08:01:34;18.80;;;17.70;;
76788;SDS011;65740;52.464;13.446;2023-10-19T08:04:01;18.67;;;17.53;;
76788;SDS011;65740;52.464;13.446;2023-10-19T08:06:27;18.77;;;17.67;;
76788;SDS011;65740;52.464;13.446;2023-10-19T08:08:52;18.43;;;17.20;;
76788;SDS011;65740;52.464;13.446;2023-10-19T08:11:18;18.40;;;17.23;;
76788;SDS011;65740;52.464;13.446;2023-10-19T08:13:43;19.43;;;18.13;;
76788;SDS011;65740;52.464;13.446;2023-10-19T08:16:09;18.63;;;17.53;;
76788;SDS011;65740;52.464;13.446;2023-10-19T08:18:37;19.67;;;18.47;;
76788;SDS011;65740;52.464;13.446;2023-10-19T08:21:02;18.60;;;17.50;;
76788;SDS011;65740;52.464;13.446;2023-10-19T08:23:28;19.37;;;18.17;;
76788;SDS011;65740;52.464;13.446;2023-10-19T08:25:56;19.97;;;18.87;;
76788;SDS011;65740;52.464;13.446;2023-10-19T08:28:23;19.80;;;18.60;;
76788;SDS011;65740;52.464;13.446;2023-10-19T08:30:49;19.77;;;18.57;;
76788;SDS011;65740;52.464;13.446;2023-10-19T08:33:25;19.83;;;18.50;;
76788;SDS011;65740;52.464;13.446;2023-10-19T08:35:52;20.30;;;18.80;;
76788;SDS011;65740;52.464;13.446;2023-10-19T08:38:24;20.13;;;18.63;;
76788;SDS011;65740;52.464;13.446;2023-10-19T08:40:51;19.97;;;18.57;;
76788;SDS011;65740;52.464;13.446;2023-10-19T08:43:17;20.30;;;19.10;;
76788;SDS011;65740;52.464;13.446;2023-10-19T08:45:44;19.93;;;18.73;;
76788;SDS011;65740;52.464;13.446;2023-10-19T08:48:10;19.30;;;18.20;;
76788;SDS011;65740;52.464;13.446;2023-10-19T08:50:36;20.97;;;19.67;;
76788;SDS011;65740;52.464;13.446;2023-10-19T08:53:03;20.87;;;19.50;;
76788;SDS011;65740;52.464;13.446;2023-10-19T08:55:31;20.30;;;19.00;;
76788;SDS011;65740;52.464;13.446;2023-10-19T08:57:59;20.83;;;19.53;;
76788;SDS011;65740;52.464;13.446;2023-10-19T09:00:25;20.60;;;19.30;;
76788;SDS011;65740;52.464;13.446;2023-10-19T09:02:54;20.60;;;19.20;;
76788;SDS011;65740;52.464;13.446;2023-10-19T09:05:21;19.93;;;18.73;;
76788;SDS011;65740;52.464;13.446;2023-10-19T09:07:54;20.00;;;18.80;;
76788;SDS011;65740;52.464;13.446;2023-10-19T09:10:23;21.33;;;19.80;;
76788;SDS011;65740;52.464;13.446;2023-10-19T09:15:35;20.93;;;19.63;;
76788;SDS011;65740;52.464;13.446;2023-10-19T09:18:14;20.17;;;18.93;;
76788;SDS011;65740;52.464;13.446;2023-10-19T09:20:48;20.80;;;19.30;;
76788;SDS011;65740;52.464;13.446;2023-10-19T09:23:22;20.53;;;19.30;;
76788;SDS011;65740;52.464;13.446;2023-10-19T09:25:51;19.70;;;18.50;;
76788;SDS011;65740;52.464;13.446;2023-10-19T09:28:21;19.50;;;18.20;;
76788;SDS011;65740;52.464;13.446;2023-10-19T09:30:48;21.33;;;19.83;;
76788;SDS011;65740;52.464;13.446;2023-10-19T09:33:15;21.13;;;19.50;;
76788;SDS011;65740;52.464;13.446;2023-10-19T09:35:43;21.33;;;19.70;;
76788;SDS011;65740;52.464;13.446;2023-10-19T09:38:13;20.43;;;19.13;;
76788;SDS011;65740;52.464;13.446;2023-10-19T09:40:46;20.80;;;19.50;;
76788;SDS011;65740;52.464;13.446;2023-10-19T09:43:15;20.50;;;19.20;;
76788;SDS011;65740;52.464;13.446;2023-10-19T09:45:46;21.40;;;19.80;;
76788;SDS011;65740;52.464;13.446;2023-10-19T09:48:19;20.60;;;19.27;;
76788;SDS011;65740;52.464;13.446;2023-10-19T09:50:47;20.67;;;19.30;;
76788;SDS011;65740;52.464;13.446;2023-10-19T09:53:20;20.37;;;19.00;;
76788;SDS011;65740;52.464;13.446;2023-10-19T09:55:54;21.47;;;20.03;;
76788;SDS011;65740;52.464;13.446;2023-10-19T09:58:24;21.60;;;20.03;;
76788;SDS011;65740;52.464;13.446;2023-10-19T10:00:56;20.93;;;19.63;;
76788;SDS011;65740;52.464;13.446;2023-10-19T10:06:09;21.00;;;19.80;;
76788;SDS011;65740;52.464;13.446;2023-10-19T10:08:43;20.87;;;19.50;;
76788;SDS011;65740;52.464;13.446;2023-10-19T10:11:14;21.27;;;19.80;;
76788;SDS011;65740;52.464;13.446;2023-10-19T10:13:57;21.27;;;19.87;;
76788;SDS011;65740;52.464;13.446;2023-10-19T10:16:27;20.60;;;19.30;;
76788;SDS011;65740;52.464;13.446;2023-10-19T10:19:02;21.40;;;19.90;;
76788;SDS011;65740;52.464;13.446;2023-10-19T10:21:29;21.73;;;20.13;;
76788;SDS011;65740;52.464;13.446;2023-10-19T10:24:00;22.33;;;20.80;;
76788;SDS011;65740;52.464;13.446;2023-10-19T10:26:28;21.60;;;20.30;;
76788;SDS011;65740;52.464;13.446;2023-10-19T10:31:45;21.07;;;19.67;;
76788;SDS011;65740;52.464;13.446;2023-10-19T10:37:02;22.13;;;20.73;;
76788;SDS011;65740;52.464;13.446;2023-10-19T10:39:31;22.43;;;21.13;;
76788;SDS011;65740;52.464;13.446;2023-10-19T10:42:00;22.27;;;20.70;;
76788;SDS011;65740;52.464;13.446;2023-10-19T10:44:46;21.97;;;20.47;;
76788;SDS011;65740;52.464;13.446;2023-10-19T10:47:16;21.13;;;19.83;;
76788;SDS011;65740;52.464;13.446;2023-10-19T10:49:53;21.17;;;19.80;;
76788;SDS011;65740;52.464;13.446;2023-10-19T10:52:34;23.13;;;21.57;;
76788;SDS011;65740;52.464;13.446;2023-10-19T10:55:10;20.50;;;19.30;;
76788;SDS011;65740;52.464;13.446;2023-10-19T10:57:39;22.83;;;21.13;;
76788;SDS011;65740;52.464;13.446;2023-10-19T11:00:13;21.30;;;20.00;;
76788;SDS011;65740;52.464;13.446;2023-10-19T11:02:58;21.77;;;20.40;;
76788;SDS011;65740;52.464;13.446;2023-10-19T11:05:35;21.60;;;20.20;;
76788;SDS011;65740;52.464;13.446;2023-10-19T11:08:08;22.00;;;20.60;;
76788;SDS011;65740;52.464;13.446;2023-10-19T11:10:38;21.00;;;19.40;;
76788;SDS011;65740;52.464;13.446;2023-10-19T11:13:10;21.10;;;19.77;;
76788;SDS011;65740;52.464;13.446;2023-10-19T11:15:50;21.10;;;19.70;;
76788;SDS011;65740;52.464;13.446;2023-10-19T11:18:37;22.07;;;20.57;;
76788;SDS011;65740;52.464;13.446;2023-10-19T11:21:11;22.50;;;21.10;;
76788;SDS011;65740;52.464;13.446;2023-10-19T11:23:46;23.53;;;21.77;;
76788;SDS011;65740;52.464;13.446;2023-10-19T11:26:15;22.90;;;21.40;;
76788;SDS011;65740;52.464;13.446;2023-10-19T11:28:42;24.27;;;22.67;;
76788;SDS011;65740;52.464;13.446;2023-10-19T11:31:12;24.93;;;22.93;;
76788;SDS011;65740;52.464;13.446;2023-10-19T11:33:40;25.43;;;23.37;;
76788;SDS011;65740;52.464;13.446;2023-10-19T11:36:10;25.60;;;23.30;;
76788;SDS011;65740;52.464;13.446;2023-10-19T11:38:38;25.27;;;23.20;;
76788;SDS011;65740;52.464;13.446;2023-10-19T11:41:14;25.60;;;23.17;;
76788;SDS011;65740;52.464;13.446;2023-10-19T11:43:41;25.50;;;23.43;;
76788;SDS011;65740;52.464;13.446;2023-10-19T11:46:08;25.10;;;23.20;;
76788;SDS011;65740;52.464;13.446;2023-10-19T11:48:35;26.17;;;23.97;;
76788;SDS011;65740;52.464;13.446;2023-10-19T11:51:01;26.00;;;23.80;;
76788;SDS011;65740;52.464;13.446;2023-10-19T11:53:34;26.00;;;23.80;;
76788;SDS011;65740;52.464;13.446;2023-10-19T11:56:05;24.50;;;22.63;;
76788;SDS011;65740;52.464;13.446;2023-10-19T11:58:32;25.67;;;23.33;;
76788;SDS011;65740;52.464;13.446;2023-10-19T12:01:06;24.23;;;22.10;;
76788;SDS011;65740;52.464;13.446;2023-10-19T12:03:36;25.57;;;23.60;;
76788;SDS011;65740;52.464;13.446;2023-10-19T12:06:03;25.73;;;23.40;;
76788;SDS011;65740;52.464;13.446;2023-10-19T12:08:35;24.03;;;22.40;;
76788;SDS011;65740;52.464;13.446;2023-10-19T12:11:02;25.77;;;23.60;;
76788;SDS011;65740;52.464;13.446;2023-10-19T12:13:40;25.80;;;23.70;;
76788;SDS011;65740;52.464;13.446;2023-10-19T12:16:06;24.90;;;23.03;;
76788;SDS011;65740;52.464;13.446;2023-10-19T12:18:32;25.20;;;23.10;;
76788;SDS011;65740;52.464;13.446;2023-10-19T12:20:57;24.93;;;22.83;;
76788;SDS011;65740;52.464;13.446;2023-10-19T12:23:25;23.37;;;21.80;;
76788;SDS011;65740;52.464;13.446;2023-10-19T12:25:50;24.77;;;22.83;;
76788;SDS011;65740;52.464;13.446;2023-10-19T12:28:16;26.00;;;23.87;;
76788;SDS011;65740;52.464;13.446;2023-10-19T12:30:42;23.77;;;21.77;;
76788;SDS011;65740;52.464;13.446;2023-10-19T12:33:08;23.20;;;21.20;;
76788;SDS011;65740;52.464;13.446;2023-10-19T12:35:37;23.10;;;21.03;;
76788;SDS011;65740;52.464;13.446;2023-10-19T12:38:24;22.60;;;20.60;;
76788;SDS011;65740;52.464;13.446;2023-10-19T12:40:51;23.40;;;21.40;;
76788;SDS011;65740;52.464;13.446;2023-10-19T12:43:17;22.00;;;20.20;;
76788;SDS011;65740;52.464;13.446;2023-10-19T12:45:44;23.73;;;21.53;;
76788;SDS011;65740;52.464;13.446;2023-10-19T12:48:15;23.37;;;21.37;;
76788;SDS011;65740;52.464;13.446;2023-10-19T12:50:42;24.20;;;22.20;;
76788;SDS011;65740;52.464;13.446;2023-10-19T12:53:08;22.47;;;20.87;;
76788;SDS011;65740;52.464;13.446;2023-10-19T12:55:34;24.90;;;22.87;;
76788;SDS011;65740;52.464;13.446;2023-10-19T12:58:03;22.60;;;20.97;;
76788;SDS011;65740;52.464;13.446;2023-10-19T13:00:33;22.13;;;20.53;;
76788;SDS011;65740;52.464;13.446;2023-10-19T13:03:06;23.50;;;21.60;;
76788;SDS011;65740;52.464;13.446;2023-10-19T13:05:33;23.53;;;21.73;;
76788;SDS011;65740;52.464;13.446;2023-10-19T13:07:59;22.70;;;21.00;;
76788;SDS011;65740;52.464;13.446;2023-10-19T13:10:29;22.20;;;20.40;;
76788;SDS011;65740;52.464;13.446;2023-10-19T13:13:03;22.53;;;20.93;;
76788;SDS011;65740;52.464;13.446;2023-10-19T13:15:33;23.80;;;22.00;;
76788;SDS011;65740;52.464;13.446;2023-10-19T13:18:01;23.30;;;21.60;;
76788;SDS011;65740;52.464;13.446;2023-10-19T13:20:31;22.33;;;20.80;;
76788;SDS011;65740;52.464;13.446;2023-10-19T13:23:01;22.27;;;20.63;;
76788;SDS011;65740;52.464;13.446;2023-10-19T13:25:31;22.60;;;20.70;;
76788;SDS011;65740;52.464;13.446;2023-10-19T13:28:19;22.70;;;21.10;;
76788;SDS011;65740;52.464;13.446;2023-10-19T13:30:48;22.17;;;20.53;;
76788;SDS011;65740;52.464;13.446;2023-10-19T13:33:15;22.87;;;20.90;;
76788;SDS011;65740;52.464;13.446;2023-10-19T13:35:43;23.20;;;21.53;;
76788;SDS011;65740;52.464;13.446;2023-10-19T13:38:10;22.80;;;21.07;;
76788;SDS011;65740;52.464;13.446;2023-10-19T13:40:39;23.50;;;21.47;;
76788;SDS011;65740;52.464;13.446;2023-10-19T13:43:06;22.77;;;21.17;;
76788;SDS011;65740;52.464;13.446;2023-10-19T13:45:34;23.80;;;21.20;;
76788;SDS011;65740;52.464;13.446;2023-10-19T13:48:01;22.67;;;20.87;;
76788;SDS011;65740;52.464;13.446;2023-10-19T13:50:31;22.27;;;20.57;;
76788;SDS011;65740;52.464;13.446;2023-10-19T13:52:57;22.37;;;20.87;;
76788;SDS011;65740;52.464;13.446;2023-10-19T13:55:25;22.23;;;20.50;;
76788;SDS011;65740;52.464;13.446;2023-10-19T13:57:58;22.50;;;20.90;;
76788;SDS011;65740;52.464;13.446;2023-10-19T14:00:24;22.40;;;20.77;;
76788;SDS011;65740;52.464;13.446;2023-10-19T14:02:55;22.87;;;21.17;;
76788;SDS011;65740;52.464;13.446;2023-10-19T14:05:22;22.57;;;20.70;;
76788;SDS011;65740;52.464;13.446;2023-10-19T14:07:49;22.47;;;20.77;;
76788;SDS011;65740;52.464;13.446;2023-10-19T14:10:16;22.17;;;20.67;;
76788;SDS011;65740;52.464;13.446;2023-10-19T14:12:44;22.10;;;20.30;;
76788;SDS011;65740;52.464;13.446;2023-10-19T14:15:17;21.30;;;19.90;;
76788;SDS011;65740;52.464;13.446;2023-10-19T14:17:44;22.77;;;21.27;;
76788;SDS011;65740;52.464;13.446;2023-10-19T14:20:12;22.43;;;20.67;;
76788;SDS011;65740;52.464;13.446;2023-10-19T14:22:39;22.20;;;20.60;;
76788;SDS011;65740;52.464;13.446;2023-10-19T14:25:05;21.47;;;19.97;;
76788;SDS011;65740;52.464;13.446;2023-10-19T14:27:36;22.40;;;20.80;;
76788;SDS011;65740;52.464;13.446;2023-10-19T14:30:02;21.00;;;19.50;;
76788;SDS011;65740;52.464;13.446;2023-10-19T14:32:28;22.50;;;21.00;;
76788;SDS011;65740;52.464;13.446;2023-10-19T14:34:55;21.17;;;19.73;;
76788;SDS011;65740;52.464;13.446;2023-10-19T14:37:20;21.77;;;20.40;;
76788;SDS011;65740;52.464;13.446;2023-10-19T14:39:46;22.50;;;20.73;;